KFFA/FFA METAR and TAF weather

Enter ICAO airport designator
Station Type Date Time Source
KFFA METAR 2020/09/27 17:55 UTC NOAA

KFFA 271755Z AUTO 25005KT 10SM SCT021 23/17 A2996 RMK AO2 60001 T02300173 10355 21013


Station Type Date Time Source
KFFA Decoded METAR 2020/09/27 17:55 UTC NOAA

Kill Devil Hills, First Flight Airport, NC, United States (KFFA) 36-01N 075-40W
Sep 27, 2020 - 01:55 PM EDT / 2020.09.27 1755 UTC
Wind: from the WSW (250 degrees) at 6 MPH (5 KT):0
Visibility: 10 mile(s):0
Sky conditions: partly cloudy
Temperature: 73.4 F (23.0 C)
Dew Point: 63.1 F (17.3 C)
Relative Humidity: 70%
Pressure (altimeter): 29.96 in. Hg (1014 hPa)
ob: KFFA 271755Z AUTO 25005KT 10SM SCT021 23/17 A2996 RMK AO2 60001 T02300173 10355 21013
cycle: 18

Station Type Date Time Source
KFFA TAF UTC NOAA

Error!

Example: see airport list